createdAt,value
2023-05-10T00:01:23.106Z,50.30
2023-05-10T00:03:52.439Z,54.30
2023-05-10T00:06:21.375Z,45.28
2023-05-10T00:08:52.318Z,46.45
2023-05-10T00:11:22.970Z,43.45
2023-05-10T00:13:52.359Z,35.42
2023-05-10T00:16:22.740Z,29.85
2023-05-10T00:18:51.842Z,29.02
2023-05-10T00:21:20.895Z,32.28
2023-05-10T00:23:49.970Z,26.92
2023-05-10T00:26:18.907Z,30.90
2023-05-10T00:31:24.372Z,34.55
2023-05-10T00:33:53.538Z,32.28
2023-05-10T00:36:23.050Z,28.40
2023-05-10T00:38:52.451Z,25.45
2023-05-10T00:41:22.210Z,23.85
2023-05-10T00:43:51.365Z,24.17
2023-05-10T00:46:20.827Z,27.52
2023-05-10T00:48:51.507Z,29.00
2023-05-10T00:51:20.833Z,31.00
2023-05-10T00:53:52.601Z,28.60
2023-05-10T00:56:24.214Z,25.15
2023-05-10T00:58:53.373Z,19.73
2023-05-10T01:01:22.660Z,12.70
2023-05-10T01:03:53.711Z,25.33
2023-05-10T01:06:22.863Z,16.55
2023-05-10T01:08:52.396Z,20.75
2023-05-10T01:11:21.988Z,23.33
2023-05-10T01:13:57.967Z,29.08
2023-05-10T01:16:29.013Z,21.23
2023-05-10T01:18:59.420Z,26.42
2023-05-10T01:21:35.219Z,23.55
2023-05-10T01:24:23.334Z,25.13
2023-05-10T01:27:36.606Z,22.10
2023-05-10T01:30:37.500Z,20.67
2023-05-10T01:33:18.348Z,17.70
2023-05-10T01:35:54.677Z,21.48
2023-05-10T01:38:32.587Z,24.20
2023-05-10T01:41:15.286Z,17.05
2023-05-10T01:43:54.695Z,15.07
2023-05-10T01:46:31.029Z,21.55
2023-05-10T01:49:05.167Z,12.40
2023-05-10T01:51:39.043Z,14.60
2023-05-10T01:54:09.849Z,18.92
2023-05-10T01:56:40.156Z,12.80
2023-05-10T01:59:15.648Z,16.25
2023-05-10T02:01:46.624Z,16.73
2023-05-10T02:04:19.627Z,18.73
2023-05-10T02:06:50.864Z,22.10
2023-05-10T02:09:23.492Z,14.23
2023-05-10T02:11:53.832Z,22.30
2023-05-10T02:14:25.541Z,24.40
2023-05-10T02:16:56.738Z,22.13
2023-05-10T02:19:28.388Z,21.02
2023-05-10T02:22:20.965Z,15.10
2023-05-10T02:24:51.517Z,19.13
2023-05-10T02:27:22.280Z,15.18
2023-05-10T02:29:52.719Z,21.38
2023-05-10T02:32:23.675Z,18.13
2023-05-10T02:34:55.290Z,20.08
2023-05-10T02:37:24.877Z,21.52
2023-05-10T02:39:57.544Z,22.35
2023-05-10T02:42:29.234Z,19.70
2023-05-10T02:45:04.274Z,20.15
2023-05-10T02:47:37.077Z,19.85
2023-05-10T02:50:09.266Z,22.10
2023-05-10T02:52:46.550Z,19.73
2023-05-10T02:55:18.525Z,18.50
2023-05-10T02:57:53.520Z,14.57
2023-05-10T03:00:22.770Z,19.52
2023-05-10T03:02:51.756Z,20.00
2023-05-10T03:05:22.532Z,17.23
2023-05-10T03:07:52.155Z,24.42
2023-05-10T03:10:22.396Z,24.60
2023-05-10T03:13:08.253Z,21.48
2023-05-10T03:15:44.700Z,22.42
2023-05-10T03:18:20.620Z,35.20
2023-05-10T03:20:53.326Z,31.42
2023-05-10T03:23:29.020Z,25.83
2023-05-10T03:25:58.784Z,25.92
2023-05-10T03:28:29.066Z,31.15
2023-05-10T03:30:59.028Z,23.88
2023-05-10T03:33:28.151Z,26.73
2023-05-10T03:35:58.501Z,26.50
2023-05-10T03:38:30.499Z,25.08
2023-05-10T03:41:00.010Z,24.20
2023-05-10T03:43:29.237Z,26.38
2023-05-10T03:45:58.267Z,22.25
2023-05-10T03:48:27.320Z,17.92
2023-05-10T03:50:56.358Z,22.65
2023-05-10T03:53:28.000Z,21.98
2023-05-10T03:55:57.232Z,20.48
2023-05-10T03:58:26.880Z,19.33
2023-05-10T04:00:56.433Z,26.10
2023-05-10T04:03:27.087Z,31.05
2023-05-10T04:06:02.073Z,18.98
2023-05-10T04:08:33.479Z,23.80
2023-05-10T04:11:09.723Z,19.45
2023-05-10T04:13:39.305Z,24.63
2023-05-10T04:16:08.617Z,26.58
2023-05-10T04:18:37.633Z,29.63
2023-05-10T04:21:06.596Z,29.90
2023-05-10T04:23:36.938Z,30.75
2023-05-10T04:26:06.096Z,27.02
2023-05-10T04:28:35.257Z,31.95
2023-05-10T04:31:05.127Z,27.30
2023-05-10T04:33:34.486Z,20.38
2023-05-10T04:36:04.298Z,30.88
2023-05-10T04:38:33.721Z,18.23
2023-05-10T04:41:11.121Z,22.73
2023-05-10T04:43:40.807Z,19.90
2023-05-10T04:46:10.016Z,15.60
2023-05-10T04:48:39.178Z,15.63
2023-05-10T04:51:08.307Z,24.10
2023-05-10T04:53:37.516Z,17.27
2023-05-10T04:56:08.006Z,17.90
2023-05-10T04:58:38.424Z,15.40
2023-05-10T05:01:09.216Z,15.93
2023-05-10T05:03:39.063Z,9.55
2023-05-10T05:06:08.612Z,8.90
2023-05-10T05:08:37.771Z,9.90
2023-05-10T05:11:06.955Z,11.65
2023-05-10T05:13:37.418Z,8.63
2023-05-10T05:16:07.579Z,11.57
2023-05-10T05:18:36.621Z,8.25
2023-05-10T05:21:05.730Z,5.78
2023-05-10T05:23:34.726Z,4.95
2023-05-10T05:26:03.708Z,3.72
2023-05-10T05:28:34.042Z,8.55
2023-05-10T05:31:04.538Z,6.35
2023-05-10T05:33:33.821Z,6.47
2023-05-10T05:36:03.780Z,12.02
2023-05-10T05:38:33.046Z,5.65
2023-05-10T05:41:02.534Z,5.63
2023-05-10T05:43:31.629Z,4.13
2023-05-10T05:46:00.678Z,4.82
2023-05-10T05:48:32.456Z,5.15
2023-05-10T05:51:01.513Z,5.25
2023-05-10T05:53:30.640Z,8.52
2023-05-10T05:56:00.904Z,5.88
2023-05-10T05:58:29.970Z,6.25
2023-05-10T06:00:59.004Z,8.25
2023-05-10T06:03:28.054Z,7.63
2023-05-10T06:05:58.770Z,9.82
2023-05-10T06:08:28.035Z,4.40
2023-05-10T06:10:57.363Z,4.75
2023-05-10T06:13:26.371Z,4.40
2023-05-10T06:15:55.500Z,3.92
2023-05-10T06:18:24.711Z,5.65
2023-05-10T06:20:53.952Z,13.45
2023-05-10T06:23:24.463Z,3.15
2023-05-10T06:25:54.173Z,11.07
2023-05-10T06:28:23.341Z,2.88
2023-05-10T06:30:52.632Z,6.68
2023-05-10T06:33:21.803Z,3.53
2023-05-10T06:35:50.844Z,4.28
2023-05-10T06:38:20.013Z,19.15
2023-05-10T06:40:50.615Z,3.08
2023-05-10T06:43:19.587Z,7.32
2023-05-10T06:45:49.907Z,7.50
2023-05-10T06:48:18.973Z,1.98
2023-05-10T06:50:49.176Z,1.98
2023-05-10T06:53:18.338Z,15.23
2023-05-10T06:55:47.596Z,6.65
2023-05-10T06:58:17.980Z,3.60
2023-05-10T07:00:48.168Z,9.75
2023-05-10T07:03:17.590Z,9.32
2023-05-10T07:05:46.703Z,4.55
2023-05-10T07:08:16.031Z,5.13
2023-05-10T07:10:45.046Z,5.30
2023-05-10T07:13:14.007Z,2.63
2023-05-10T07:15:44.638Z,12.00
2023-05-10T07:18:13.837Z,2.20
2023-05-10T07:20:42.951Z,2.13
2023-05-10T07:23:12.167Z,2.10
2023-05-10T07:25:41.347Z,2.38
2023-05-10T07:28:10.317Z,2.00
2023-05-10T07:30:39.351Z,2.13
2023-05-10T07:33:10.686Z,2.45
2023-05-10T07:35:39.809Z,4.65
2023-05-10T07:38:08.946Z,2.15
2023-05-10T07:40:38.314Z,3.83
2023-05-10T07:43:07.725Z,2.38
2023-05-10T07:45:37.104Z,3.80
2023-05-10T07:48:06.457Z,1.10
2023-05-10T07:50:37.051Z,2.05
2023-05-10T07:53:06.724Z,2.53
2023-05-10T07:55:35.908Z,3.25
2023-05-10T07:58:09.483Z,3.38
2023-05-10T08:00:40.592Z,3.78
2023-05-10T08:03:09.976Z,2.65
2023-05-10T08:05:42.098Z,3.30
2023-05-10T08:08:12.056Z,2.33
2023-05-10T08:10:41.480Z,5.90
2023-05-10T08:13:10.615Z,5.20
2023-05-10T08:15:39.937Z,1.60
2023-05-10T08:18:09.050Z,1.50
2023-05-10T08:20:38.218Z,2.92
2023-05-10T08:23:08.728Z,3.25
2023-05-10T08:25:38.342Z,3.05
2023-05-10T08:28:08.815Z,1.13
2023-05-10T08:30:39.072Z,2.95
2023-05-10T08:33:08.782Z,1.33
2023-05-10T08:35:37.931Z,1.83
2023-05-10T08:38:08.355Z,3.30
2023-05-10T08:40:39.890Z,1.73
2023-05-10T08:43:11.202Z,3.63
2023-05-10T08:45:42.561Z,2.28
2023-05-10T08:48:14.037Z,2.40
2023-05-10T08:50:44.644Z,2.60
2023-05-10T08:53:17.448Z,1.23
2023-05-10T08:55:46.558Z,3.05
2023-05-10T08:58:16.641Z,1.63
2023-05-10T09:00:46.080Z,4.90
2023-05-10T09:03:16.049Z,2.90
2023-05-10T09:05:45.858Z,2.20
2023-05-10T09:08:17.578Z,1.73
2023-05-10T09:10:48.627Z,4.47
2023-05-10T09:13:19.290Z,5.00
2023-05-10T09:15:49.446Z,1.67
2023-05-10T09:18:18.611Z,6.75
2023-05-10T09:20:47.854Z,7.90
2023-05-10T09:23:18.675Z,3.35
2023-05-10T09:25:49.175Z,1.95
2023-05-10T09:28:18.180Z,1.10
2023-05-10T09:30:56.727Z,1.92
2023-05-10T09:33:27.691Z,1.58
2023-05-10T09:35:57.426Z,1.35
2023-05-10T09:38:27.822Z,1.70
2023-05-10T09:40:57.949Z,2.70
2023-05-10T09:43:28.543Z,1.25
2023-05-10T09:45:57.958Z,3.05
2023-05-10T09:48:27.459Z,3.63
2023-05-10T09:50:59.618Z,3.25
2023-05-10T09:53:30.310Z,1.05
2023-05-10T09:55:59.679Z,2.80
2023-05-10T09:58:29.199Z,1.77
2023-05-10T10:00:58.753Z,1.63
2023-05-10T10:03:30.303Z,1.52
2023-05-10T10:06:00.120Z,4.43
2023-05-10T10:08:31.221Z,2.83
2023-05-10T10:11:00.822Z,4.57
2023-05-10T10:13:34.409Z,1.52
2023-05-10T10:16:06.610Z,16.08
2023-05-10T10:18:39.999Z,3.50
2023-05-10T10:21:10.830Z,8.13
2023-05-10T10:29:04.077Z,7.72
2023-05-10T10:31:40.415Z,2.38
2023-05-10T10:34:12.253Z,1.83
2023-05-10T10:36:47.798Z,3.47
2023-05-10T10:39:17.924Z,4.60
2023-05-10T10:41:53.202Z,9.55
2023-05-10T10:44:28.884Z,7.70
2023-05-10T10:47:24.306Z,4.70
2023-05-10T10:50:05.622Z,3.08
2023-05-10T10:52:36.972Z,2.30
2023-05-10T10:55:09.448Z,3.78
2023-05-10T10:57:49.649Z,7.93
2023-05-10T11:00:32.340Z,4.13
2023-05-10T11:03:05.510Z,1.70
2023-05-10T11:05:41.384Z,5.70
2023-05-10T11:08:17.409Z,2.55
2023-05-10T11:10:55.568Z,2.58
2023-05-10T11:13:32.466Z,3.17
2023-05-10T11:16:14.379Z,2.10
2023-05-10T11:18:54.280Z,1.20
2023-05-10T11:21:24.071Z,2.92
2023-05-10T11:23:58.509Z,1.98
2023-05-10T11:26:32.679Z,1.80
2023-05-10T11:29:03.031Z,3.38
2023-05-10T11:31:34.268Z,3.13
2023-05-10T11:34:04.038Z,1.98
2023-05-10T11:36:37.052Z,2.22
2023-05-10T11:39:07.772Z,3.95
2023-05-10T11:41:37.117Z,1.63
2023-05-10T11:44:06.582Z,1.75
2023-05-10T11:46:38.811Z,1.73
2023-05-10T11:49:10.121Z,2.35
2023-05-10T11:51:40.512Z,2.20
2023-05-10T11:54:11.863Z,3.72
2023-05-10T11:56:42.254Z,2.03
2023-05-10T11:59:11.588Z,2.33
2023-05-10T12:01:42.504Z,1.42
2023-05-10T12:04:11.914Z,3.67
2023-05-10T12:06:43.279Z,2.40
2023-05-10T12:09:12.534Z,1.85
2023-05-10T12:11:44.348Z,1.45
2023-05-10T12:14:14.081Z,2.53
2023-05-10T12:16:46.195Z,2.17
2023-05-10T12:19:21.785Z,2.00
2023-05-10T12:21:51.519Z,2.97
2023-05-10T12:24:22.659Z,4.10
2023-05-10T12:29:42.693Z,1.40
2023-05-10T12:32:13.611Z,1.45
2023-05-10T12:34:42.776Z,1.38
2023-05-10T12:37:11.816Z,5.28
2023-05-10T12:39:42.559Z,4.28
2023-05-10T12:42:12.725Z,3.95
2023-05-10T12:44:42.331Z,3.70
2023-05-10T12:47:20.419Z,3.00
2023-05-10T12:49:49.509Z,3.53
2023-05-10T12:52:18.605Z,1.38
2023-05-10T12:54:48.457Z,2.80
2023-05-10T12:57:17.509Z,2.53
2023-05-10T12:59:46.667Z,1.58
2023-05-10T13:02:19.171Z,2.20
2023-05-10T13:04:50.803Z,2.17
2023-05-10T13:07:20.688Z,5.88
2023-05-10T13:09:50.625Z,2.45
2023-05-10T13:12:19.787Z,1.63
2023-05-10T13:14:48.893Z,2.20
2023-05-10T13:17:19.427Z,4.13
2023-05-10T13:19:48.496Z,2.00
2023-05-10T13:22:25.629Z,3.00
2023-05-10T13:25:02.172Z,3.47
2023-05-10T13:27:32.987Z,2.78
2023-05-10T13:30:02.045Z,3.33
2023-05-10T13:32:37.262Z,3.03
2023-05-10T13:35:08.734Z,2.95
2023-05-10T13:37:38.351Z,3.15
2023-05-10T13:40:08.961Z,2.55
2023-05-10T13:42:38.610Z,3.65
2023-05-10T13:45:08.757Z,2.25
2023-05-10T13:47:39.290Z,6.20
2023-05-10T13:50:09.280Z,1.75
2023-05-10T13:52:38.586Z,3.38
2023-05-10T13:55:08.014Z,3.42
2023-05-10T13:57:38.053Z,2.78
2023-05-10T14:00:08.928Z,2.38
2023-05-10T14:02:40.122Z,3.50
2023-05-10T14:05:09.772Z,3.38
2023-05-10T14:07:39.148Z,1.90
2023-05-10T14:10:09.217Z,2.15
2023-05-10T14:12:38.432Z,2.72
2023-05-10T14:15:08.451Z,2.55
2023-05-10T14:17:37.526Z,3.72
2023-05-10T14:20:09.591Z,3.85
2023-05-10T14:22:38.787Z,4.03
2023-05-10T14:25:08.332Z,2.28
2023-05-10T14:27:37.763Z,1.70
2023-05-10T14:30:08.008Z,2.40
2023-05-10T14:32:37.767Z,2.92
2023-05-10T14:35:12.133Z,1.52
2023-05-10T14:37:42.163Z,2.85
2023-05-10T14:40:12.136Z,3.35
2023-05-10T14:42:41.465Z,4.03
2023-05-10T14:45:12.181Z,2.80
2023-05-10T14:47:41.275Z,1.77
2023-05-10T14:50:21.497Z,1.65
2023-05-10T14:53:01.352Z,2.47
2023-05-10T14:55:30.459Z,2.75
2023-05-10T14:57:59.813Z,2.85
2023-05-10T15:00:31.680Z,2.08
2023-05-10T15:03:01.488Z,1.70
2023-05-10T15:05:32.637Z,3.45
2023-05-10T15:08:02.029Z,4.57
2023-05-10T15:10:33.110Z,3.70
2023-05-10T15:13:03.793Z,2.30
2023-05-10T15:15:33.147Z,1.98
2023-05-10T15:18:02.224Z,1.70
2023-05-10T15:20:32.801Z,2.47
2023-05-10T15:23:01.885Z,2.10
2023-05-10T15:25:31.018Z,3.80
2023-05-10T15:28:00.149Z,2.42
2023-05-10T15:30:29.941Z,2.85
2023-05-10T15:32:59.287Z,2.10
2023-05-10T15:35:29.409Z,2.60
2023-05-10T15:38:00.829Z,2.00
2023-05-10T15:40:30.335Z,2.15
2023-05-10T15:42:59.598Z,1.80
2023-05-10T15:45:29.035Z,2.63
2023-05-10T15:47:58.279Z,3.85
2023-05-10T15:50:27.952Z,2.25
2023-05-10T15:52:57.617Z,2.25
2023-05-10T15:55:28.871Z,5.43
2023-05-10T15:57:58.090Z,3.78
2023-05-10T16:00:28.583Z,5.82
2023-05-10T16:02:58.039Z,6.70
2023-05-10T16:05:30.051Z,4.22
2023-05-10T16:07:59.291Z,2.78
2023-05-10T16:10:33.325Z,5.05
2023-05-10T16:13:03.563Z,3.85
2023-05-10T16:15:32.768Z,2.13
2023-05-10T16:18:02.862Z,2.67
2023-05-10T16:20:32.276Z,3.03
2023-05-10T16:23:04.951Z,3.17
2023-05-10T16:25:35.879Z,2.33
2023-05-10T16:28:05.233Z,2.72
2023-05-10T16:30:34.464Z,5.13
2023-05-10T16:33:04.644Z,3.45
2023-05-10T16:35:33.801Z,2.38
2023-05-10T16:38:03.617Z,3.88
2023-05-10T16:40:32.953Z,5.40
2023-05-10T16:43:03.809Z,4.05
2023-05-10T16:45:33.415Z,4.05
2023-05-10T16:48:02.520Z,8.50
2023-05-10T16:50:32.584Z,3.70
2023-05-10T16:53:02.292Z,3.50
2023-05-10T16:55:31.533Z,4.55
2023-05-10T16:58:01.149Z,3.53
2023-05-10T17:00:31.797Z,3.50
2023-05-10T17:03:01.412Z,4.18
2023-05-10T17:05:33.735Z,10.23
2023-05-10T17:08:02.947Z,7.82
2023-05-10T17:10:32.716Z,4.57
2023-05-10T17:13:02.071Z,4.40
2023-05-10T17:15:32.511Z,5.97
2023-05-10T17:18:01.863Z,5.40
2023-05-10T17:20:31.168Z,4.15
2023-05-10T17:23:00.793Z,4.57
2023-05-10T17:25:30.366Z,5.82
2023-05-10T17:28:00.166Z,5.35
2023-05-10T17:30:33.305Z,3.83
2023-05-10T17:33:03.867Z,3.58
2023-05-10T17:35:34.340Z,4.55
2023-05-10T17:38:03.528Z,7.35
2023-05-10T17:40:32.555Z,6.32
2023-05-10T17:43:01.617Z,3.92
2023-05-10T17:45:30.940Z,2.08
2023-05-10T17:48:00.059Z,10.00
2023-05-10T17:50:31.977Z,6.63
2023-05-10T17:53:19.592Z,5.72
2023-05-10T17:55:48.700Z,7.88
2023-05-10T17:58:18.915Z,7.30
2023-05-10T18:00:48.091Z,5.20
2023-05-10T18:03:17.226Z,11.02
2023-05-10T18:05:49.066Z,5.90
2023-05-10T18:08:22.948Z,5.97
2023-05-10T18:10:52.152Z,3.70
2023-05-10T18:13:21.650Z,4.78
2023-05-10T18:15:50.798Z,11.57
2023-05-10T18:18:20.087Z,13.23
2023-05-10T18:20:56.531Z,8.73
2023-05-10T18:23:26.670Z,5.95
2023-05-10T18:25:56.100Z,9.23
2023-05-10T18:28:25.856Z,6.88
2023-05-10T18:30:55.025Z,10.00
2023-05-10T18:33:24.166Z,13.88
2023-05-10T18:35:54.597Z,8.65
2023-05-10T18:38:23.781Z,12.18
2023-05-10T18:40:53.870Z,12.63
2023-05-10T18:43:22.954Z,8.70
2023-05-10T18:45:52.796Z,9.65
2023-05-10T18:48:22.922Z,7.13
2023-05-10T18:50:52.278Z,13.35
2023-05-10T18:53:23.012Z,8.10
2023-05-10T18:55:58.596Z,10.18
2023-05-10T18:58:29.050Z,5.55
2023-05-10T19:00:58.825Z,7.65
2023-05-10T19:03:28.051Z,6.82
2023-05-10T19:05:57.167Z,10.38
2023-05-10T19:08:27.598Z,10.70
2023-05-10T19:10:56.808Z,5.10
2023-05-10T19:13:27.845Z,5.93
2023-05-10T19:16:07.392Z,7.22
2023-05-10T19:18:38.337Z,6.75
2023-05-10T19:21:10.431Z,9.10
2023-05-10T19:23:42.134Z,10.38
2023-05-10T19:26:12.756Z,5.38
2023-05-10T19:28:42.907Z,16.60
2023-05-10T19:31:12.811Z,7.75
2023-05-10T19:33:42.106Z,9.45
2023-05-10T19:36:11.433Z,10.98
2023-05-10T19:38:42.069Z,8.93
2023-05-10T19:41:11.613Z,7.80
2023-05-10T19:43:41.899Z,12.93
2023-05-10T19:46:11.155Z,11.27
2023-05-10T19:48:40.444Z,17.52
2023-05-10T19:51:10.263Z,10.43
2023-05-10T19:53:44.273Z,17.98
2023-05-10T19:56:14.457Z,9.40
2023-05-10T19:58:43.684Z,10.60
2023-05-10T20:01:13.046Z,10.68
2023-05-10T20:03:42.322Z,12.48
2023-05-10T20:06:12.098Z,15.75
2023-05-10T20:08:43.010Z,14.70
2023-05-10T20:11:12.241Z,12.25
2023-05-10T20:13:41.274Z,8.13
2023-05-10T20:16:10.343Z,10.50
2023-05-10T20:18:42.026Z,16.20
2023-05-10T20:21:11.416Z,10.18
2023-05-10T20:23:40.686Z,14.35
2023-05-10T20:26:11.285Z,14.55
2023-05-10T20:28:40.839Z,10.50
2023-05-10T20:31:10.394Z,9.13
2023-05-10T20:33:39.489Z,10.85
2023-05-10T20:36:09.722Z,10.75
2023-05-10T20:38:38.926Z,12.95
2023-05-10T20:41:08.124Z,15.50
2023-05-10T20:43:38.627Z,8.15
2023-05-10T20:46:07.942Z,15.57
2023-05-10T20:48:37.026Z,16.17
2023-05-10T20:51:06.161Z,14.27
2023-05-10T20:53:35.167Z,15.82
2023-05-10T20:56:04.177Z,11.43
2023-05-10T20:58:33.458Z,12.88
2023-05-10T21:01:04.237Z,20.67
2023-05-10T21:03:33.228Z,14.60
2023-05-10T21:06:02.389Z,16.20
2023-05-10T21:08:31.466Z,17.55
2023-05-10T21:11:04.864Z,17.80
2023-05-10T21:13:34.422Z,12.32
2023-05-10T21:16:05.716Z,15.57
2023-05-10T21:18:34.753Z,20.95
2023-05-10T21:21:03.964Z,15.43
2023-05-10T21:23:34.419Z,13.38
2023-05-10T21:26:04.362Z,23.92
2023-05-10T21:28:33.410Z,14.48
2023-05-10T21:31:02.571Z,11.15
2023-05-10T21:33:32.958Z,12.27
2023-05-10T21:36:02.200Z,16.65
2023-05-10T21:38:31.767Z,10.27
2023-05-10T21:41:00.772Z,15.75
2023-05-10T21:43:30.027Z,13.98
2023-05-10T21:45:59.075Z,12.75
2023-05-10T21:48:28.302Z,12.25
2023-05-10T21:50:58.873Z,14.55
2023-05-10T21:53:28.468Z,11.80
2023-05-10T21:55:57.617Z,13.32
2023-05-10T21:58:26.566Z,20.58
2023-05-10T22:00:56.308Z,10.43
2023-05-10T22:03:25.674Z,9.82
2023-05-10T22:05:54.948Z,16.33
2023-05-10T22:08:25.778Z,12.18
2023-05-10T22:10:54.774Z,16.95
2023-05-10T22:13:23.775Z,12.68
2023-05-10T22:15:52.906Z,12.98
2023-05-10T22:18:22.042Z,11.60
2023-05-10T22:20:51.096Z,13.10
2023-05-10T22:23:20.221Z,17.92
2023-05-10T22:25:50.630Z,27.38
2023-05-10T22:28:19.606Z,26.88
2023-05-10T22:30:49.723Z,23.70
2023-05-10T22:33:18.858Z,15.85
2023-05-10T22:35:47.932Z,15.65
2023-05-10T22:38:17.004Z,14.40
2023-05-10T22:40:46.031Z,9.25
2023-05-10T22:43:18.373Z,11.40
2023-05-10T22:45:47.494Z,11.10
2023-05-10T22:48:16.992Z,9.82
2023-05-10T22:50:45.945Z,11.45
2023-05-10T22:53:14.896Z,13.70
2023-05-10T22:55:43.928Z,9.73
2023-05-10T22:58:12.922Z,14.50
2023-05-10T23:00:43.342Z,11.93
2023-05-10T23:03:12.341Z,11.68
2023-05-10T23:05:41.363Z,12.88
2023-05-10T23:08:10.387Z,9.98
2023-05-10T23:10:39.357Z,12.32
2023-05-10T23:13:08.355Z,8.05
2023-05-10T23:15:37.470Z,8.88
2023-05-10T23:18:09.838Z,16.15
2023-05-10T23:20:38.910Z,7.15
2023-05-10T23:23:07.867Z,14.43
2023-05-10T23:25:37.174Z,10.40
2023-05-10T23:28:07.092Z,10.13
2023-05-10T23:30:36.186Z,10.25
2023-05-10T23:33:05.269Z,9.23
2023-05-10T23:35:35.766Z,17.55
2023-05-10T23:38:04.903Z,10.13
2023-05-10T23:40:33.828Z,9.02
2023-05-10T23:43:02.756Z,12.63
2023-05-10T23:45:32.088Z,8.02
2023-05-10T23:48:01.206Z,9.70
2023-05-10T23:50:30.187Z,13.23
2023-05-10T23:53:00.692Z,10.30
2023-05-10T23:55:29.672Z,11.13
2023-05-10T23:57:58.694Z,12.30
